sensor_id;sensor_type;location;lat;lon;timestamp;pressure;altitude;pressure_sealevel;temperature;humidity
44144;BME280;43510;51.920;4.492;2023-02-14T00:01:07;66907.06;;;9.47;94.70
44144;BME280;43510;51.920;4.492;2023-02-14T00:03:32;66896.84;;;9.35;94.26
44144;BME280;43510;51.920;4.492;2023-02-14T00:06:09;66902.59;;;9.42;95.06
44144;BME280;43510;51.920;4.492;2023-02-14T00:08:36;66894.06;;;9.32;94.74
44144;BME280;43510;51.920;4.492;2023-02-14T00:11:10;66896.84;;;9.35;94.94
44144;BME280;43510;51.920;4.492;2023-02-14T00:13:36;66890.34;;;9.31;94.88
44144;BME280;43510;51.920;4.492;2023-02-14T00:16:01;66897.78;;;9.33;95.10
44144;BME280;43510;51.920;4.492;2023-02-14T00:18:27;66899.47;;;9.35;94.66
44144;BME280;43510;51.920;4.492;2023-02-14T00:21:12;66894.78;;;9.35;95.02
44144;BME280;43510;51.920;4.492;2023-02-14T00:23:38;66896.31;;;9.34;94.76
44144;BME280;43510;51.920;4.492;2023-02-14T00:26:05;66897.41;;;9.35;94.62
44144;BME280;43510;51.920;4.492;2023-02-14T00:28:36;66891.44;;;9.32;94.80
44144;BME280;43510;51.920;4.492;2023-02-14T00:31:04;66876.41;;;9.19;94.90
44144;BME280;43510;51.920;4.492;2023-02-14T00:33:30;66892.22;;;9.28;95.11
44144;BME280;43510;51.920;4.492;2023-02-14T00:35:55;66881.03;;;9.25;94.80
44144;BME280;43510;51.920;4.492;2023-02-14T00:38:21;66876.97;;;9.19;94.86
44144;BME280;43510;51.920;4.492;2023-02-14T00:40:53;66880.13;;;9.20;95.45
44144;BME280;43510;51.920;4.492;2023-02-14T00:43:18;66877.50;;;9.20;95.26
44144;BME280;43510;51.920;4.492;2023-02-14T00:45:44;66875.28;;;9.18;95.05
44144;BME280;43510;51.920;4.492;2023-02-14T00:48:10;66876.06;;;9.14;95.38
44144;BME280;43510;51.920;4.492;2023-02-14T00:50:35;66865.81;;;9.09;95.38
44144;BME280;43510;51.920;4.492;2023-02-14T00:53:00;66860.81;;;9.05;95.05
44144;BME280;43510;51.920;4.492;2023-02-14T00:55:26;66862.13;;;9.01;95.73
44144;BME280;43510;51.920;4.492;2023-02-14T00:57:51;66848.72;;;8.96;95.81
44144;BME280;43510;51.920;4.492;2023-02-14T01:00:27;66855.25;;;8.99;96.46
44144;BME280;43510;51.920;4.492;2023-02-14T01:02:52;66855.06;;;8.97;95.96
44144;BME280;43510;51.920;4.492;2023-02-14T01:05:17;66853.38;;;8.95;96.47
44144;BME280;43510;51.920;4.492;2023-02-14T01:07:43;66848.56;;;8.93;96.30
44144;BME280;43510;51.920;4.492;2023-02-14T01:10:15;66849.66;;;8.94;96.91
44144;BME280;43510;51.920;4.492;2023-02-14T01:12:40;66837.59;;;8.86;96.60
44144;BME280;43510;51.920;4.492;2023-02-14T01:15:06;66836.84;;;8.83;97.08
44144;BME280;43510;51.920;4.492;2023-02-14T01:17:31;66833.53;;;8.80;96.83
44144;BME280;43510;51.920;4.492;2023-02-14T01:19:57;66836.13;;;8.80;97.21
44144;BME280;43510;51.920;4.492;2023-02-14T01:22:22;66833.53;;;8.80;96.98
44144;BME280;43510;51.920;4.492;2023-02-14T01:24:53;66837.81;;;8.81;97.40
44144;BME280;43510;51.920;4.492;2023-02-14T01:27:18;66830.72;;;8.77;97.43
44144;BME280;43510;51.920;4.492;2023-02-14T01:29:43;66833.53;;;8.80;97.31
44144;BME280;43510;51.920;4.492;2023-02-14T01:32:09;66824.59;;;8.72;97.32
44144;BME280;43510;51.920;4.492;2023-02-14T01:34:34;66830.72;;;8.77;97.75
44144;BME280;43510;51.920;4.492;2023-02-14T01:37:00;66829.44;;;8.74;97.81
44144;BME280;43510;51.920;4.492;2023-02-14T01:39:25;66833.75;;;8.75;97.77
44144;BME280;43510;51.920;4.492;2023-02-14T01:41:50;66825.72;;;8.73;97.82
44144;BME280;43510;51.920;4.492;2023-02-14T01:47:07;66827.94;;;8.75;97.98
44144;BME280;43510;51.920;4.492;2023-02-14T01:49:48;66828.34;;;8.73;98.10
44144;BME280;43510;51.920;4.492;2023-02-14T01:52:26;66836.50;;;8.78;98.49
44144;BME280;43510;51.920;4.492;2023-02-14T01:55:03;66831.69;;;8.76;98.50
44144;BME280;43510;51.920;4.492;2023-02-14T01:57:36;66830.38;;;8.72;98.22
44144;BME280;43510;51.920;4.492;2023-02-14T02:00:05;66824.25;;;8.67;97.95
44144;BME280;43510;51.920;4.492;2023-02-14T02:02:58;66827.63;;;8.70;98.61
44144;BME280;43510;51.920;4.492;2023-02-14T02:05:24;66819.81;;;8.63;98.12
44144;BME280;43510;51.920;4.492;2023-02-14T02:08:09;66823.31;;;8.68;98.68
44144;BME280;43510;51.920;4.492;2023-02-14T02:10:35;66810.69;;;8.59;98.25
44144;BME280;43510;51.920;4.492;2023-02-14T02:13:07;66812.34;;;8.60;98.98
44144;BME280;43510;51.920;4.492;2023-02-14T02:15:41;66815.53;;;8.61;99.16
44144;BME280;43510;51.920;4.492;2023-02-14T02:23:55;66817.19;;;8.63;98.70
44144;BME280;43510;51.920;4.492;2023-02-14T02:26:33;66806.78;;;8.55;98.63
44144;BME280;43510;51.920;4.492;2023-02-14T02:29:36;66814.59;;;8.63;99.00
44144;BME280;43510;51.920;4.492;2023-02-14T02:41:08;66794.16;;;8.46;99.97
44144;BME280;43510;51.920;4.492;2023-02-14T02:49:12;66795.84;;;8.41;99.86
44144;BME280;43510;51.920;4.492;2023-02-14T02:51:44;66796.97;;;8.42;100.00
44144;BME280;43510;51.920;4.492;2023-02-14T02:54:42;66791.59;;;8.39;100.00
44144;BME280;43510;51.920;4.492;2023-02-14T02:57:26;66789.53;;;8.40;100.00
44144;BME280;43510;51.920;4.492;2023-02-14T02:59:54;66784.16;;;8.30;100.00
44144;BME280;43510;51.920;4.492;2023-02-14T03:02:33;66777.66;;;8.27;100.00
44144;BME280;43510;51.920;4.492;2023-02-14T03:05:20;66775.41;;;8.25;100.00
44144;BME280;43510;51.920;4.492;2023-02-14T03:07:47;66773.03;;;8.20;100.00
44144;BME280;43510;51.920;4.492;2023-02-14T03:10:22;66770.56;;;8.23;100.00
44144;BME280;43510;51.920;4.492;2023-02-14T03:18:07;66771.53;;;8.21;100.00
44144;BME280;43510;51.920;4.492;2023-02-14T03:23:42;66760.00;;;8.13;100.00
44144;BME280;43510;51.920;4.492;2023-02-14T03:26:24;66755.00;;;8.08;100.00
44144;BME280;43510;51.920;4.492;2023-02-14T03:29:00;66759.66;;;8.08;100.00
44144;BME280;43510;51.920;4.492;2023-02-14T03:31:35;66748.31;;;8.02;100.00
44144;BME280;43510;51.920;4.492;2023-02-14T03:34:11;66742.19;;;7.97;100.00
44144;BME280;43510;51.920;4.492;2023-02-14T03:43:24;66749.25;;;8.01;100.00
44144;BME280;43510;51.920;4.492;2023-02-14T03:45:57;66739.03;;;7.96;100.00
44144;BME280;43510;51.920;4.492;2023-02-14T03:48:28;66737.72;;;7.93;100.00
44144;BME280;43510;51.920;4.492;2023-02-14T03:50:56;66735.53;;;7.91;100.00
44144;BME280;43510;51.920;4.492;2023-02-14T03:53:42;66734.41;;;7.90;100.00
44144;BME280;43510;51.920;4.492;2023-02-14T03:56:16;66734.41;;;7.90;100.00
44144;BME280;43510;51.920;4.492;2023-02-14T03:58:47;66733.50;;;7.84;100.00
44144;BME280;43510;51.920;4.492;2023-02-14T04:01:22;66736.84;;;7.87;100.00
44144;BME280;43510;51.920;4.492;2023-02-14T04:03:51;66723.09;;;7.77;100.00
44144;BME280;43510;51.920;4.492;2023-02-14T04:06:18;66717.53;;;7.72;100.00
44144;BME280;43510;51.920;4.492;2023-02-14T04:08:44;66716.41;;;7.71;100.00
44144;BME280;43510;51.920;4.492;2023-02-14T04:11:10;66708.25;;;7.66;100.00
44144;BME280;43510;51.920;4.492;2023-02-14T04:13:36;66713.25;;;7.70;100.00
44144;BME280;43510;51.920;4.492;2023-02-14T04:16:03;66717.34;;;7.69;100.00
44144;BME280;43510;51.920;4.492;2023-02-14T04:18:31;66711.41;;;7.66;100.00
44144;BME280;43510;51.920;4.492;2023-02-14T04:21:15;66696.56;;;7.55;100.00
44144;BME280;43510;51.920;4.492;2023-02-14T04:23:42;66699.56;;;7.53;100.00
44144;BME280;43510;51.920;4.492;2023-02-14T04:26:07;66701.78;;;7.55;100.00
44144;BME280;43510;51.920;4.492;2023-02-14T04:28:41;66701.03;;;7.59;100.00
44144;BME280;43510;51.920;4.492;2023-02-14T04:31:06;66708.63;;;7.64;100.00
44144;BME280;43510;51.920;4.492;2023-02-14T04:33:32;66715.31;;;7.70;100.00
44144;BME280;43510;51.920;4.492;2023-02-14T04:35:59;66716.25;;;7.68;100.00
44144;BME280;43510;51.920;4.492;2023-02-14T04:38:24;66705.47;;;7.63;100.00
44144;BME280;43510;51.920;4.492;2023-02-14T04:40:50;66706.59;;;7.64;100.00
44144;BME280;43510;51.920;4.492;2023-02-14T04:43:16;66698.44;;;7.52;100.00
44144;BME280;43510;51.920;4.492;2023-02-14T04:45:42;66699.91;;;7.58;100.00
44144;BME280;43510;51.920;4.492;2023-02-14T04:48:09;66695.47;;;7.54;100.00
44144;BME280;43510;51.920;4.492;2023-02-14T04:50:35;66691.41;;;7.48;100.00
44144;BME280;43510;51.920;4.492;2023-02-14T04:53:00;66695.28;;;7.52;100.00
44144;BME280;43510;51.920;4.492;2023-02-14T04:55:26;66686.56;;;7.46;100.00
44144;BME280;43510;51.920;4.492;2023-02-14T04:57:51;66688.03;;;7.45;100.00
44144;BME280;43510;51.920;4.492;2023-02-14T05:00:17;66683.78;;;7.44;100.00
44144;BME280;43510;51.920;4.492;2023-02-14T05:02:43;66686.03;;;7.38;100.00
44144;BME280;43510;51.920;4.492;2023-02-14T05:05:15;66685.44;;;7.45;100.00
44144;BME280;43510;51.920;4.492;2023-02-14T05:07:41;66676.56;;;7.37;100.00
44144;BME280;43510;51.920;4.492;2023-02-14T05:10:12;66681.38;;;7.39;100.00
44144;BME280;43510;51.920;4.492;2023-02-14T05:12:37;66672.66;;;7.33;100.00
44144;BME280;43510;51.920;4.492;2023-02-14T05:15:02;66678.75;;;7.39;100.00
44144;BME280;43510;51.920;4.492;2023-02-14T05:17:28;66685.66;;;7.41;100.00
44144;BME280;43510;51.920;4.492;2023-02-14T05:20:03;66682.09;;;7.42;100.00
44144;BME280;43510;51.920;4.492;2023-02-14T05:22:30;66678.59;;;7.36;100.00
44144;BME280;43510;51.920;4.492;2023-02-14T05:24:55;66675.63;;;7.38;100.00
44144;BME280;43510;51.920;4.492;2023-02-14T05:27:21;66676.56;;;7.37;100.00
44144;BME280;43510;51.920;4.492;2023-02-14T05:29:46;66680.09;;;7.35;100.00
44144;BME280;43510;51.920;4.492;2023-02-14T05:32:11;66682.88;;;7.38;100.00
44144;BME280;43510;51.920;4.492;2023-02-14T05:34:44;66677.09;;;7.37;100.00
44144;BME280;43510;51.920;4.492;2023-02-14T05:37:09;66677.47;;;7.35;100.00
44144;BME280;43510;51.920;4.492;2023-02-14T05:39:35;66670.63;;;7.27;100.00
44144;BME280;43510;51.920;4.492;2023-02-14T05:42:00;66662.09;;;7.24;100.00
44144;BME280;43510;51.920;4.492;2023-02-14T05:44:26;66661.38;;;7.21;100.00
44144;BME280;43510;51.920;4.492;2023-02-14T05:46:52;66660.25;;;7.20;100.00
44144;BME280;43510;51.920;4.492;2023-02-14T05:49:21;66662.09;;;7.24;100.00
44144;BME280;43510;51.920;4.492;2023-02-14T05:51:46;66660.63;;;7.18;100.00
44144;BME280;43510;51.920;4.492;2023-02-14T05:54:11;66661.19;;;7.18;100.00
44144;BME280;43510;51.920;4.492;2023-02-14T05:56:37;66649.84;;;7.13;100.00
44144;BME280;43510;51.920;4.492;2023-02-14T05:59:24;66660.41;;;7.22;100.00
44144;BME280;43510;51.920;4.492;2023-02-14T06:01:49;66649.50;;;7.08;100.00
44144;BME280;43510;51.920;4.492;2023-02-14T06:04:15;66644.66;;;7.06;100.00
44144;BME280;43510;51.920;4.492;2023-02-14T06:06:44;66647.28;;;7.06;100.00
44144;BME280;43510;51.920;4.492;2023-02-14T06:09:10;66637.63;;;7.02;100.00
44144;BME280;43510;51.920;4.492;2023-02-14T06:11:35;66638.00;;;7.00;100.00
44144;BME280;43510;51.920;4.492;2023-02-14T06:14:00;66640.41;;;7.04;100.00
44144;BME280;43510;51.920;4.492;2023-02-14T06:16:30;66643.19;;;7.07;100.00
44144;BME280;43510;51.920;4.492;2023-02-14T06:18:55;66633.72;;;6.98;100.00
44144;BME280;43510;51.920;4.492;2023-02-14T06:21:21;66633.56;;;6.95;100.00
44144;BME280;43510;51.920;4.492;2023-02-14T06:23:47;66634.13;;;6.96;100.00
44144;BME280;43510;51.920;4.492;2023-02-14T06:26:13;66632.44;;;6.94;100.00
44144;BME280;43510;51.920;4.492;2023-02-14T06:28:38;66628.72;;;6.93;100.00
44144;BME280;43510;51.920;4.492;2023-02-14T06:31:04;66631.69;;;6.91;100.00
44144;BME280;43510;51.920;4.492;2023-02-14T06:33:42;66634.28;;;6.98;100.00
44144;BME280;43510;51.920;4.492;2023-02-14T06:36:08;66619.44;;;6.87;100.00
44144;BME280;43510;51.920;4.492;2023-02-14T06:38:34;66629.50;;;6.89;100.00
44144;BME280;43510;51.920;4.492;2023-02-14T06:41:07;66624.84;;;6.90;100.00
44144;BME280;43510;51.920;4.492;2023-02-14T06:43:33;66625.78;;;6.88;100.00
44144;BME280;43510;51.920;4.492;2023-02-14T06:45:59;66625.41;;;6.90;100.00
44144;BME280;43510;51.920;4.492;2023-02-14T06:48:24;66626.88;;;6.89;100.00
44144;BME280;43510;51.920;4.492;2023-02-14T06:50:56;66629.50;;;6.89;100.00
44144;BME280;43510;51.920;4.492;2023-02-14T06:53:21;66628.00;;;6.90;100.00
44144;BME280;43510;51.920;4.492;2023-02-14T06:55:48;66630.22;;;6.92;100.00
44144;BME280;43510;51.920;4.492;2023-02-14T06:58:14;66621.34;;;6.84;100.00
44144;BME280;43510;51.920;4.492;2023-02-14T07:00:39;66620.94;;;6.86;100.00
44144;BME280;43510;51.920;4.492;2023-02-14T07:03:05;66614.25;;;6.80;100.00
44144;BME280;43510;51.920;4.492;2023-02-14T07:05:32;66625.22;;;6.88;100.00
44144;BME280;43510;51.920;4.492;2023-02-14T07:07:57;66604.63;;;6.69;100.00
44144;BME280;43510;51.920;4.492;2023-02-14T07:10:23;66627.44;;;6.90;100.00
44144;BME280;43510;51.920;4.492;2023-02-14T07:12:48;66627.44;;;6.90;100.00
44144;BME280;43510;51.920;4.492;2023-02-14T07:15:17;66621.34;;;6.84;100.00
44144;BME280;43510;51.920;4.492;2023-02-14T07:17:43;66627.59;;;6.92;100.00
44144;BME280;43510;51.920;4.492;2023-02-14T07:20:10;66635.59;;;6.95;100.00
44144;BME280;43510;51.920;4.492;2023-02-14T07:22:36;66642.28;;;7.01;100.00
44144;BME280;43510;51.920;4.492;2023-02-14T07:25:02;66653.19;;;7.16;100.00
44144;BME280;43510;51.920;4.492;2023-02-14T07:27:28;66667.47;;;7.26;100.00
44144;BME280;43510;51.920;4.492;2023-02-14T07:29:54;66675.81;;;7.34;100.00
44144;BME280;43510;51.920;4.492;2023-02-14T07:32:19;66678.41;;;7.34;100.00
44144;BME280;43510;51.920;4.492;2023-02-14T07:34:53;66694.72;;;7.51;100.00
44144;BME280;43510;51.920;4.492;2023-02-14T07:37:19;66707.69;;;7.65;100.00
44144;BME280;43510;51.920;4.492;2023-02-14T07:39:44;66714.38;;;7.71;100.00
44144;BME280;43510;51.920;4.492;2023-02-14T07:42:10;66738.50;;;7.89;100.00
44144;BME280;43510;51.920;4.492;2023-02-14T07:44:36;66750.38;;;8.02;100.00
44144;BME280;43510;51.920;4.492;2023-02-14T07:47:06;66752.59;;;8.04;100.00
44144;BME280;43510;51.920;4.492;2023-02-14T07:49:32;66753.16;;;8.04;100.00
44144;BME280;43510;51.920;4.492;2023-02-14T07:51:57;66772.66;;;8.22;100.00
44144;BME280;43510;51.920;4.492;2023-02-14T07:54:23;66783.59;;;8.30;100.00
44144;BME280;43510;51.920;4.492;2023-02-14T07:56:48;66777.66;;;8.27;100.00
44144;BME280;43510;51.920;4.492;2023-02-14T07:59:14;66792.69;;;8.40;100.00
44144;BME280;43510;51.920;4.492;2023-02-14T08:01:40;66787.88;;;8.38;100.00
44144;BME280;43510;51.920;4.492;2023-02-14T08:04:21;66817.34;;;8.65;100.00
44144;BME280;43510;51.920;4.492;2023-02-14T08:06:50;66822.22;;;8.67;100.00
44144;BME280;43510;51.920;4.492;2023-02-14T08:09:16;66832.78;;;8.77;100.00
44144;BME280;43510;51.920;4.492;2023-02-14T08:11:50;66842.81;;;8.86;99.75
44144;BME280;43510;51.920;4.492;2023-02-14T08:14:36;66855.78;;;9.00;98.88
44144;BME280;43510;51.920;4.492;2023-02-14T08:17:07;66872.50;;;9.15;98.57
44144;BME280;43510;51.920;4.492;2023-02-14T08:19:34;66880.88;;;9.23;97.39
44144;BME280;43510;51.920;4.492;2023-02-14T08:21:59;66889.22;;;9.30;96.83
44144;BME280;43510;51.920;4.492;2023-02-14T08:24:25;66900.94;;;9.41;96.24
44144;BME280;43510;51.920;4.492;2023-02-14T08:26:50;66924.00;;;9.57;95.64
44144;BME280;43510;51.920;4.492;2023-02-14T08:29:16;66928.22;;;9.66;94.35
44144;BME280;43510;51.920;4.492;2023-02-14T08:31:42;66939.38;;;9.76;93.53
44144;BME280;43510;51.920;4.492;2023-02-14T08:34:07;66954.41;;;9.90;92.81
44144;BME280;43510;51.920;4.492;2023-02-14T08:36:36;66968.00;;;9.97;92.30
44144;BME280;43510;51.920;4.492;2023-02-14T08:39:04;66975.66;;;10.02;91.15
44144;BME280;43510;51.920;4.492;2023-02-14T08:41:30;66972.81;;;10.06;90.29
44144;BME280;43510;51.920;4.492;2023-02-14T08:43:58;67002.22;;;10.31;89.78
44144;BME280;43510;51.920;4.492;2023-02-14T08:46:24;67014.09;;;10.44;89.35
44144;BME280;43510;51.920;4.492;2023-02-14T08:48:49;67037.19;;;10.60;88.22
44144;BME280;43510;51.920;4.492;2023-02-14T08:51:16;67037.34;;;10.62;87.56
44144;BME280;43510;51.920;4.492;2023-02-14T08:53:42;67035.13;;;10.60;87.25
44144;BME280;43510;51.920;4.492;2023-02-14T08:56:10;67052.44;;;10.76;86.92
44144;BME280;43510;51.920;4.492;2023-02-14T08:58:39;67068.78;;;10.93;86.03
44144;BME280;43510;51.920;4.492;2023-02-14T09:01:13;67079.53;;;11.05;84.98
44144;BME280;43510;51.920;4.492;2023-02-14T09:03:39;67074.34;;;10.98;83.88
44144;BME280;43510;51.920;4.492;2023-02-14T09:06:08;67074.19;;;10.96;83.52
44144;BME280;43510;51.920;4.492;2023-02-14T09:08:39;67075.69;;;10.95;83.73
44144;BME280;43510;51.920;4.492;2023-02-14T09:11:10;67070.28;;;10.92;83.24
44144;BME280;43510;51.920;4.492;2023-02-14T09:13:35;67082.72;;;11.06;83.29
44144;BME280;43510;51.920;4.492;2023-02-14T09:16:06;67100.56;;;11.22;82.73
44144;BME280;43510;51.920;4.492;2023-02-14T09:18:32;67106.72;;;11.28;81.55
44144;BME280;43510;51.920;4.492;2023-02-14T09:21:13;67124.75;;;11.46;81.55
44144;BME280;43510;51.920;4.492;2023-02-14T09:23:39;67133.88;;;11.50;80.78
44144;BME280;43510;51.920;4.492;2023-02-14T09:26:07;67134.63;;;11.53;80.38
44144;BME280;43510;51.920;4.492;2023-02-14T09:28:34;67140.59;;;11.56;79.98
44144;BME280;43510;51.920;4.492;2023-02-14T09:31:14;67146.91;;;11.64;79.75
44144;BME280;43510;51.920;4.492;2023-02-14T09:33:42;67148.41;;;11.63;78.76
44144;BME280;43510;51.920;4.492;2023-02-14T09:36:28;67146.69;;;11.69;78.23
44144;BME280;43510;51.920;4.492;2023-02-14T09:39:15;67173.16;;;11.88;78.04
44144;BME280;43510;51.920;4.492;2023-02-14T09:44:31;67177.09;;;11.92;77.47
44144;BME280;43510;51.920;4.492;2023-02-14T09:49:58;67175.41;;;11.90;76.33
44144;BME280;43510;51.920;4.492;2023-02-14T09:52:27;67178.75;;;11.93;75.80
44144;BME280;43510;51.920;4.492;2023-02-14T09:54:57;67191.59;;;12.05;75.82
44144;BME280;43510;51.920;4.492;2023-02-14T10:13:12;67253.03;;;12.60;71.94
44144;BME280;43510;51.920;4.492;2023-02-14T10:15:44;67278.41;;;12.79;70.42
44144;BME280;43510;51.920;4.492;2023-02-14T10:18:50;67272.22;;;12.80;70.25
44144;BME280;43510;51.920;4.492;2023-02-14T10:21:14;67259.75;;;12.66;70.53
44144;BME280;43510;51.920;4.492;2023-02-14T10:23:50;67273.31;;;12.81;70.78
44144;BME280;43510;51.920;4.492;2023-02-14T10:26:21;67276.50;;;12.82;70.28
44144;BME280;43510;51.920;4.492;2023-02-14T10:28:50;67284.66;;;12.94;69.39
44144;BME280;43510;51.920;4.492;2023-02-14T10:34:55;67326.66;;;13.25;68.58
44144;BME280;43510;51.920;4.492;2023-02-14T10:40:33;67321.81;;;13.23;67.74
44144;BME280;43510;51.920;4.492;2023-02-14T10:45:52;67328.34;;;13.26;68.23
44144;BME280;43510;51.920;4.492;2023-02-14T10:51:23;67334.69;;;13.34;67.65
44144;BME280;43510;51.920;4.492;2023-02-14T10:59:03;67340.41;;;13.42;66.92
44144;BME280;43510;51.920;4.492;2023-02-14T11:01:34;67344.56;;;13.41;66.89
44144;BME280;43510;51.920;4.492;2023-02-14T11:04:01;67345.84;;;13.44;67.32
44144;BME280;43510;51.920;4.492;2023-02-14T11:06:33;67349.75;;;13.48;67.21
44144;BME280;43510;51.920;4.492;2023-02-14T11:08:59;67357.81;;;13.51;67.01
44144;BME280;43510;51.920;4.492;2023-02-14T11:11:46;67375.16;;;13.66;67.10
44144;BME280;43510;51.920;4.492;2023-02-14T11:16:43;67358.53;;;13.54;66.78
44144;BME280;43510;51.920;4.492;2023-02-14T11:21:42;67368.06;;;13.62;67.12
44144;BME280;43510;51.920;4.492;2023-02-14T11:24:37;67372.84;;;13.71;67.27
44144;BME280;43510;51.920;4.492;2023-02-14T11:27:14;67379.25;;;13.72;66.47
44144;BME280;43510;51.920;4.492;2023-02-14T11:29:43;67370.44;;;13.67;66.83
44144;BME280;43510;51.920;4.492;2023-02-14T11:32:35;67397.84;;;13.92;66.84
44144;BME280;43510;51.920;4.492;2023-02-14T11:35:03;67434.94;;;14.27;65.73
44144;BME280;43510;51.920;4.492;2023-02-14T11:37:50;67426.78;;;14.15;66.11
44144;BME280;43510;51.920;4.492;2023-02-14T11:40:33;67424.72;;;14.16;66.16
44144;BME280;43510;51.920;4.492;2023-02-14T11:45:41;67420.97;;;14.15;65.43
44144;BME280;43510;51.920;4.492;2023-02-14T11:48:25;67433.13;;;14.23;65.87
44144;BME280;43510;51.920;4.492;2023-02-14T11:51:05;67429.19;;;14.20;66.05
44144;BME280;43510;51.920;4.492;2023-02-14T11:56:20;67451.03;;;14.40;65.08
44144;BME280;43510;51.920;4.492;2023-02-14T12:01:28;67451.59;;;14.40;65.38
44144;BME280;43510;51.920;4.492;2023-02-14T12:03:57;67447.63;;;14.37;65.16
44144;BME280;43510;51.920;4.492;2023-02-14T12:06:29;67455.34;;;14.41;65.06
44144;BME280;43510;51.920;4.492;2023-02-14T12:11:56;67466.69;;;14.54;64.29
44144;BME280;43510;51.920;4.492;2023-02-14T12:14:25;67464.72;;;14.47;64.31
44144;BME280;43510;51.920;4.492;2023-02-14T12:17:29;67485.00;;;14.68;63.94
44144;BME280;43510;51.920;4.492;2023-02-14T12:20:11;67475.66;;;14.62;63.96
44144;BME280;43510;51.920;4.492;2023-02-14T12:23:03;67473.97;;;14.60;64.07
44144;BME280;43510;51.920;4.492;2023-02-14T12:25:49;67473.41;;;14.60;64.04
44144;BME280;43510;51.920;4.492;2023-02-14T12:28:22;67471.97;;;14.54;63.54
44144;BME280;43510;51.920;4.492;2023-02-14T12:31:00;67472.13;;;14.56;63.98
44144;BME280;43510;51.920;4.492;2023-02-14T12:33:29;67478.47;;;14.64;64.04
44144;BME280;43510;51.920;4.492;2023-02-14T12:36:27;67497.31;;;14.79;63.56
44144;BME280;43510;51.920;4.492;2023-02-14T12:39:17;67485.88;;;14.74;63.26
44144;BME280;43510;51.920;4.492;2023-02-14T12:44:59;67516.91;;;14.97;63.30
44144;BME280;43510;51.920;4.492;2023-02-14T12:50:25;67521.56;;;15.03;63.08
44144;BME280;43510;51.920;4.492;2023-02-14T12:58:20;67527.56;;;15.06;62.48
44144;BME280;43510;51.920;4.492;2023-02-14T13:06:22;67540.28;;;15.16;61.95
44144;BME280;43510;51.920;4.492;2023-02-14T13:14:28;67478.47;;;14.64;61.58
44144;BME280;43510;51.920;4.492;2023-02-14T13:17:00;67468.22;;;14.53;62.06
44144;BME280;43510;51.920;4.492;2023-02-14T13:22:28;67483.50;;;14.69;62.12
44144;BME280;43510;51.920;4.492;2023-02-14T13:25:02;67490.22;;;14.75;62.48
44144;BME280;43510;51.920;4.492;2023-02-14T13:27:35;67498.28;;;14.78;62.42
44144;BME280;43510;51.920;4.492;2023-02-14T13:30:22;67503.66;;;14.87;62.66
44144;BME280;43510;51.920;4.492;2023-02-14T13:32:51;67498.84;;;14.78;62.28
44144;BME280;43510;51.920;4.492;2023-02-14T13:35:20;67495.09;;;14.77;62.32
44144;BME280;43510;51.920;4.492;2023-02-14T13:37:54;67495.09;;;14.77;62.50
44144;BME280;43510;51.920;4.492;2023-02-14T13:40:24;67497.72;;;14.77;62.39
44144;BME280;43510;51.920;4.492;2023-02-14T13:43:02;67491.72;;;14.74;62.98
44144;BME280;43510;51.920;4.492;2023-02-14T13:50:39;67464.28;;;14.49;62.81
44144;BME280;43510;51.920;4.492;2023-02-14T13:53:11;67461.25;;;14.51;63.08
44144;BME280;43510;51.920;4.492;2023-02-14T13:55:44;67459.59;;;14.50;63.80
44144;BME280;43510;51.920;4.492;2023-02-14T13:58:18;67462.63;;;14.48;63.78
44144;BME280;43510;51.920;4.492;2023-02-14T14:00:52;67458.88;;;14.47;64.17
44144;BME280;43510;51.920;4.492;2023-02-14T14:06:07;67452.16;;;14.41;65.08
44144;BME280;43510;51.920;4.492;2023-02-14T14:11:00;67446.94;;;14.34;65.35
44144;BME280;43510;51.920;4.492;2023-02-14T14:18:55;67442.63;;;14.32;65.75
44144;BME280;43510;51.920;4.492;2023-02-14T14:24:22;67449.91;;;14.39;65.85
44144;BME280;43510;51.920;4.492;2023-02-14T14:27:02;67430.06;;;14.25;65.82
44144;BME280;43510;51.920;4.492;2023-02-14T14:29:48;67436.63;;;14.29;65.95
44144;BME280;43510;51.920;4.492;2023-02-14T14:32:32;67440.22;;;14.27;66.19
44144;BME280;43510;51.920;4.492;2023-02-14T14:35:05;67432.00;;;14.22;66.46
44144;BME280;43510;51.920;4.492;2023-02-14T14:37:35;67430.88;;;14.21;66.69
44144;BME280;43510;51.920;4.492;2023-02-14T14:40:23;67427.66;;;14.21;66.63
44144;BME280;43510;51.920;4.492;2023-02-14T14:42:52;67425.28;;;14.16;66.66
44144;BME280;43510;51.920;4.492;2023-02-14T14:45:27;67423.03;;;14.14;66.95
44144;BME280;43510;51.920;4.492;2023-02-14T14:47:55;67415.19;;;14.07;67.07
44144;BME280;43510;51.920;4.492;2023-02-14T14:52:59;67412.97;;;14.05;67.49
44144;BME280;43510;51.920;4.492;2023-02-14T14:55:30;67417.69;;;14.05;67.43
44144;BME280;43510;51.920;4.492;2023-02-14T14:57:58;67408.47;;;14.01;67.56
44144;BME280;43510;51.920;4.492;2023-02-14T15:00:32;67404.72;;;14.00;67.63
44144;BME280;43510;51.920;4.492;2023-02-14T15:03:05;67400.66;;;13.94;67.88
44144;BME280;43510;51.920;4.492;2023-02-14T15:05:35;67394.50;;;13.88;68.19
44144;BME280;43510;51.920;4.492;2023-02-14T15:08:28;67401.22;;;13.95;68.39
44144;BME280;43510;51.920;4.492;2023-02-14T15:13:47;67393.22;;;13.85;68.85
44144;BME280;43510;51.920;4.492;2023-02-14T15:16:39;67395.06;;;13.89;68.96
44144;BME280;43510;51.920;4.492;2023-02-14T15:19:14;67382.75;;;13.78;69.50
44144;BME280;43510;51.920;4.492;2023-02-14T15:21:41;67387.47;;;13.77;69.34
44144;BME280;43510;51.920;4.492;2023-02-14T15:24:12;67382.75;;;13.78;69.81
44144;BME280;43510;51.920;4.492;2023-02-14T15:26:54;67391.38;;;13.81;69.77
44144;BME280;43510;51.920;4.492;2023-02-14T15:29:23;67408.34;;;13.99;69.10
44144;BME280;43510;51.920;4.492;2023-02-14T15:31:56;67383.16;;;13.76;69.95
44144;BME280;43510;51.920;4.492;2023-02-14T15:34:33;67376.28;;;13.67;70.31
44144;BME280;43510;51.920;4.492;2023-02-14T15:37:03;67354.78;;;13.53;70.59
44144;BME280;43510;51.920;4.492;2023-02-14T15:39:42;67358.72;;;13.56;71.06
44144;BME280;43510;51.920;4.492;2023-02-14T15:42:26;67352.56;;;13.51;70.88
44144;BME280;43510;51.920;4.492;2023-02-14T15:47:42;67336.91;;;13.36;71.18